Flight Track Log - Related Links

Times and Time Zones

All times are in EDT time to prevent confusion due to time zone crossing. See the SWA1718 flight status page for this flight to view local times or setup timezone preferences in your user account.

Time Position Orientation Groundspeed Altitude Reporting Facility
EDT Latitude Longitude Course Direction KTS MPH feet Rate Location/Type
Mon 05:32:43 PM 35.3531 -101.7067 31° Northeast 269 310 10,300  Level Albuquerque Center
Mon 05:33:45 PM 35.4350 -101.6583 26° Northeast 323 372 12,800 2,129 Climbing Albuquerque Center
Mon 05:34:47 PM 35.5222 -101.6969 340° North 337 388 14,700 2,146 Climbing Albuquerque Center
Mon 05:35:48 PM 35.6117 -101.7478 335° Northwest 352 405 17,200 2,780 Climbing Albuquerque Center
Mon 05:36:00 PM 35.7640 -102.0333 334° Northwest  Level Estimated
Mon 05:36:50 PM 35.7044 -101.7956 337° Northwest 360 414 20,400  Level Albuquerque Center
Mon 05:37:00 PM 35.8553 -102.0887 334° Northwest  Level Estimated
Mon 05:37:52 PM 35.7953 -101.8428 337° Northwest 357 411 22,400  Level Albuquerque Center
Mon 05:38:54 PM 35.9100 -101.9036 337° Northwest 373 429 24,100 1,597 Climbing Albuquerque Center
Mon 05:39:56 PM 36.0078 -101.9572 336° Northwest 384 442 25,700 1,415 Climbing Albuquerque Center
Mon 05:40:57 PM 36.1075 -102.0083 338° Northwest 388 447 27,000 1,366 Climbing Albuquerque Center
Mon 05:41:59 PM 36.2081 -102.0628 336° Northwest 392 451 28,500 1,597 Climbing Albuquerque Center
Mon 05:43:01 PM 36.3067 -102.1164 336° Northwest 391 450 30,300 1,597 Climbing Albuquerque Center
Mon 05:44:03 PM 36.4039 -102.1686 337° Northwest 384 442 31,800 1,366 Climbing Albuquerque Center
Mon 05:45:04 PM 36.4992 -102.2200 337° Northwest 377 434 33,100 1,366 Climbing Albuquerque Center
Mon 05:46:06 PM 36.6117 -102.2811 336° Northwest 369 425 34,600 1,258 Climbing Albuquerque Center
Mon 05:47:08 PM 36.7053 -102.3317 337° Northwest 368 423 35,700 683 Climbing Albuquerque Center
Mon 05:48:09 PM 36.7992 -102.3817 337° Northwest 366 421 36,000 146 Climbing Albuquerque Center
Mon 05:49:11 PM 36.9044 -102.4417 336° Northwest 377 434 36,000  Level Albuquerque Center
Mon 05:50:13 PM 36.9964 -102.4911 337° Northwest 377 434 36,000  Level Albuquerque Center
Mon 05:51:15 PM 37.0936 -102.5447 336° Northwest 375 432 36,000  Level Albuquerque Center
Mon 05:52:16 PM 37.2003 -102.6028 337° Northwest 375 432 36,000  Level Albuquerque Center
Mon 05:53:18 PM 37.2889 -102.6522 336° Northwest 368 423 36,000  Level Albuquerque Center
Mon 05:54:20 PM 37.3781 -102.7017 336° Northwest 366 421 36,000  Level Albuquerque Center
Mon 05:55:22 PM 37.4808 -102.7586 336° Northwest 363 418 36,000  Level Albuquerque Center
Mon 05:56:03 PM 37.5403 -102.7878 339° North 365 420 36,000  Level Denver Center
Mon 05:57:05 PM 37.6525 -102.8225 346° North 372 428 36,000  Level Denver Center
Mon 05:58:07 PM 37.7475 -102.8514 346° North 369 425 36,000  Level Denver Center
Mon 05:59:08 PM 37.8586 -102.8872 346° North 370 426 36,000 -390 Level Denver Center
Mon 06:00:10 PM 37.9536 -102.9172 346° North 370 426 35,200 -823 Descending Denver Center
Mon 06:01:12 PM 38.0642 -102.9525 346° North 377 434 34,300 -585 Descending Denver Center
Mon 06:02:13 PM 38.1633 -102.9844 346° North 382 440 34,000 -146 Descending Denver Center
Mon 06:03:15 PM 38.2633 -103.0156 346° North 386 444 34,000  Level Denver Center
Mon 06:04:17 PM 38.3819 -103.0525 346° North 390 449 34,000 -484 Level Denver Center
Mon 06:05:19 PM 38.4825 -103.0853 346° North 390 449 33,000 -976 Descending Denver Center
Mon 06:06:20 PM 38.5722 -103.1497 331° Northwest 352 405 32,000 -488 Descending Denver Center
Mon 06:07:22 PM 38.6381 -103.2425 312° West 351 404 32,000  Level Denver Center
Mon 06:08:36 PM 38.7053 -103.3372 312° West 357 411 32,000  Level Denver Center
Mon 06:09:38 PM 38.7917 -103.4569 313° West 361 415 32,000  Level Denver Center
Mon 06:10:39 PM 38.8644 -103.5600 312° West 358 412 32,000 -1,024 Level Denver Center
Mon 06:11:41 PM 38.9300 -103.6533 312° West 348 400 29,900 -2,129 Descending Denver Center
Mon 06:12:43 PM 38.9939 -103.7433 312° West 338 389 27,600 -2,293 Descending Denver Center
Mon 06:13:44 PM 39.0589 -103.8347 313° West 343 395 25,200 -2,293 Descending Denver Center
Mon 06:14:46 PM 39.1189 -103.9228 311° West 325 374 22,900 -2,177 Descending Denver Center
Mon 06:15:48 PM 39.1778 -104.0067 312° West 315 362 20,700 -1,902 Descending Denver Center
Mon 06:16:49 PM 39.2361 -104.0903 312° West 311 358 19,000 -1,561 Descending Denver Center
Mon 06:17:51 PM 39.2781 -104.2044 295° West 297 342 17,500 -1,645 Descending Denver Center
Mon 06:18:53 PM 39.3003 -104.3000 287° West 284 327 15,600 -1,561 Descending Denver Center
Mon 06:19:54 PM 39.3514 -104.3783 310° West 289 333 14,300 -976 Descending Denver Center
Mon 06:20:56 PM 39.3856 -104.4608 298° West 247 284 13,600 -1,113 Descending Denver Center
Mon 06:21:58 PM 39.4161 -104.5492 294° West 268 308 12,000 -1,268 Descending Denver Center
Mon 06:22:59 PM 39.4533 -104.6314 300° West 271 312 11,000 -488 Descending Denver Center
Mon 06:24:01 PM 39.5156 -104.6603 340° North 239 275 11,000 -244 Level Denver Center
Mon 06:25:02 PM 39.5878 -104.6639 358° North 230 265 10,500 -878 Descending Denver Center
Mon 06:26:04 PM 39.6439 -104.6631 North 203 234 9,200 -1,113 Descending Denver Center
Mon 06:27:06 PM 39.6986 -104.6622 North 191 220 8,200 -1,073 Descending Denver Center
Mon 06:28:07 PM 39.7525 -104.6614 North 182 209 7,000 -976 Descending Denver Center
Mon 06:29:09 PM 39.7919 -104.6611 360° North 136 157 6,200 -780 Descending Denver Center
Mon 06:30:10 PM 39.8325 -104.6611 360° North 136 157 5,400 -787 Descending Denver Center
Mon 06:32:00 PM 39.8500 -104.6667 North  Level FlightAware Approximate
Mon 06:39:00 PM 39.8617 -104.6732 North  Level Estimated
Mon 06:40:00 PM 39.8617 -104.6732 North  Level Estimated
Mon 06:41:00 PM 39.8617 -104.6732 North  Level Estimated

Login

Don't have an account? Register now (free) for customized features, flight alerts, and more!